Time;durP1;ratioP1;P1;durP2;ratioP2;P2;SDS_P1;SDS_P2;PMS_P1;PMS_P2;Temp;Humidity;BMP_temperature;BMP_pressure;BME280_temperature;BME280_humidity;BME280_pressure;Samples;Min_cycle;Max_cycle;Signal;HPM_P1;HPM_P2
2022/05/19 00:01:59;;;;;;;1.17;0.90;;;16.20;93.20;;;;;;5071352;28;20177;-52
2022/05/19 00:04:26;;;;;;;0.90;0.90;;;16.10;93.20;;;;;;5068462;28;20602;-57
2022/05/19 00:06:52;;;;;;;0.73;0.73;;;16.10;93.10;;;;;;5070606;28;20297;-50
2022/05/19 00:09:18;;;;;;;1.17;0.83;;;16.10;93.00;;;;;;5068598;28;20256;-51
2022/05/19 00:11:46;;;;;;;0.70;0.70;;;16.10;93.00;;;;;;5068854;28;20212;-48
2022/05/19 00:14:12;;;;;;;2.10;1.00;;;16.10;92.90;;;;;;5070789;28;20242;-59
2022/05/19 00:16:38;;;;;;;0.93;0.70;;;16.00;92.80;;;;;;5067864;28;20200;-57
2022/05/19 00:19:04;;;;;;;0.93;0.90;;;16.00;92.70;;;;;;5105331;28;20189;-53
2022/05/19 00:21:30;;;;;;;1.03;0.87;;;15.90;92.90;;;;;;5102237;28;20196;-51
2022/05/19 00:23:56;;;;;;;0.67;0.67;;;15.90;92.90;;;;;;5103538;28;20173;-51
2022/05/19 00:26:21;;;;;;;0.80;0.80;;;15.80;92.70;;;;;;5067812;28;20208;-53
2022/05/19 00:28:47;;;;;;;0.60;0.60;;;15.80;92.80;;;;;;5067942;28;20189;-53
2022/05/19 00:31:13;;;;;;;0.60;0.60;;;15.80;92.90;;;;;;5068768;28;20192;-56
2022/05/19 00:33:39;;;;;;;0.93;0.80;;;15.60;93.10;;;;;;5067724;28;20176;-56
2022/05/19 00:36:17;;;;;;;0.70;0.70;;;15.60;93.10;;;;;;5064368;28;20227;-48
2022/05/19 00:38:43;;;;;;;2.37;0.90;;;15.60;93.10;;;;;;5066497;28;20645;-57
2022/05/19 00:41:10;;;;;;;1.40;0.70;;;15.60;93.00;;;;;;5069635;28;20180;-51
2022/05/19 00:43:40;;;;;;;0.80;0.80;;;15.60;93.00;;;;;;5067284;28;20665;-57
2022/05/19 00:46:23;;;;;;;0.60;0.60;;;15.50;93.00;;;;;;5063487;28;20209;-52
2022/05/19 00:49:01;;;;;;;1.37;0.97;;;15.50;93.10;;;;;;5069556;28;20190;-54
2022/05/19 00:51:51;;;;;;;0.63;0.63;;;15.50;93.10;;;;;;5097976;28;20185;-58
2022/05/19 00:54:21;;;;;;;1.90;0.90;;;15.50;93.20;;;;;;5069670;28;20280;-56
2022/05/19 00:56:54;;;;;;;0.90;0.90;;;15.40;93.30;;;;;;5066123;28;20185;-54
2022/05/19 00:59:26;;;;;;;1.50;0.90;;;15.40;93.20;;;;;;5067175;28;20181;-52
2022/05/19 01:01:55;;;;;;;0.90;0.80;;;15.30;93.30;;;;;;5067431;28;20185;-55
2022/05/19 01:04:30;;;;;;;0.80;0.80;;;15.30;93.10;;;;;;5067280;28;20268;-55
2022/05/19 01:07:00;;;;;;;1.17;1.07;;;15.30;93.10;;;;;;5069928;28;20309;-51
2022/05/19 01:09:28;;;;;;;2.20;0.83;;;15.20;93.10;;;;;;5064541;28;20181;-57
2022/05/19 01:11:55;;;;;;;0.60;0.60;;;15.20;93.30;;;;;;5068058;28;20253;-52
2022/05/19 01:14:22;;;;;;;2.87;0.90;;;15.10;93.50;;;;;;5067965;28;20185;-52
2022/05/19 01:16:48;;;;;;;0.90;0.90;;;15.20;93.70;;;;;;5067599;28;20185;-54
2022/05/19 01:19:35;;;;;;;0.80;0.80;;;15.00;93.80;;;;;;5069485;28;20189;-55
2022/05/19 01:22:39;;;;;;;0.80;0.80;;;15.00;94.00;;;;;;5066405;28;20288;-58
2022/05/19 01:25:31;;;;;;;0.73;0.70;;;15.00;94.10;;;;;;5067413;28;20180;-49
2022/05/19 01:27:57;;;;;;;1.50;0.80;;;15.00;94.10;;;;;;5068233;28;20315;-55
2022/05/19 01:30:23;;;;;;;1.27;1.00;;;15.00;94.30;;;;;;5100481;28;20199;-54
2022/05/19 01:32:51;;;;;;;0.80;0.80;;;15.00;94.20;;;;;;5069562;28;20264;-48
2022/05/19 01:35:17;;;;;;;2.53;0.93;;;14.90;94.20;;;;;;5067019;28;20322;-49
2022/05/19 01:37:42;;;;;;;0.90;0.90;;;14.90;94.40;;;;;;5071970;28;20257;-51
2022/05/19 01:40:33;;;;;;;0.93;0.93;;;14.80;94.50;;;;;;5071291;28;20272;-53
2022/05/19 01:43:19;;;;;;;1.83;0.77;;;14.80;94.50;;;;;;5068435;28;20182;-58
2022/05/19 01:46:05;;;;;;;0.90;0.90;;;14.70;94.70;;;;;;5071080;28;20213;-53
2022/05/19 01:48:52;;;;;;;1.23;0.80;;;14.70;94.70;;;;;;5053217;28;20228;-51
2022/05/19 01:51:30;;;;;;;2.20;0.87;;;14.60;94.90;;;;;;5051699;28;20247;-51
2022/05/19 01:54:47;;;;;;;1.17;0.90;;;14.60;95.00;;;;;;5070386;28;20204;-53
2022/05/19 01:57:27;;;;;;;1.07;1.03;;;14.50;95.20;;;;;;5004931;28;20219;-53
2022/05/19 02:00:00;;;;;;;1.00;0.80;;;14.40;95.30;;;;;;5004151;28;20196;-56
2022/05/19 02:02:44;;;;;;;1.03;0.80;;;14.40;95.50;;;;;;4989425;28;20204;-51
2022/05/19 02:05:31;;;;;;;1.60;1.10;;;14.40;95.70;;;;;;4987248;28;20208;-54
2022/05/19 02:08:00;;;;;;;0.80;0.80;;;14.40;95.80;;;;;;5004908;28;20491;-56
2022/05/19 02:10:32;;;;;;;1.23;0.60;;;14.30;95.80;;;;;;5004844;28;20188;-52
2022/05/19 02:13:00;;;;;;;1.20;0.90;;;14.30;96.00;;;;;;4987390;28;20232;-47
2022/05/19 02:15:30;;;;;;;1.33;0.90;;;14.30;96.10;;;;;;5005701;28;20279;-51
2022/05/19 02:17:57;;;;;;;21.33;9.97;;;14.30;96.30;;;;;;5003242;28;20254;-56
2022/05/19 02:20:26;;;;;;;3.00;2.23;;;14.20;96.40;;;;;;5006320;28;20204;-50
2022/05/19 02:22:52;;;;;;;1.03;1.03;;;14.20;96.60;;;;;;5003447;28;20224;-54
2022/05/19 02:25:28;;;;;;;2.97;1.10;;;14.20;96.90;;;;;;5004723;28;20224;-53
2022/05/19 02:28:03;;;;;;;1.10;0.90;;;14.20;97.10;;;;;;5004593;28;20199;-55
2022/05/19 02:30:36;;;;;;;2.40;1.00;;;14.10;96.90;;;;;;5003087;28;20192;-51
2022/05/19 02:33:02;;;;;;;0.87;0.87;;;14.10;97.20;;;;;;5041452;28;20292;-56
2022/05/19 02:35:29;;;;;;;1.10;1.00;;;14.10;97.20;;;;;;5050943;28;20185;-56
2022/05/19 02:37:56;;;;;;;0.80;0.80;;;14.00;97.20;;;;;;5052922;28;20235;-54
2022/05/19 02:40:24;;;;;;;1.00;1.00;;;14.10;97.20;;;;;;5051861;28;20182;-53
2022/05/19 02:42:50;;;;;;;3.03;1.10;;;14.10;97.50;;;;;;5050897;28;20196;-59
2022/05/19 02:45:17;;;;;;;1.00;1.00;;;14.00;97.30;;;;;;5068555;28;20217;-60
2022/05/19 02:47:43;;;;;;;1.00;0.97;;;14.00;97.40;;;;;;5049564;28;20208;-56
2022/05/19 02:50:10;;;;;;;2.10;1.00;;;14.00;97.40;;;;;;5053109;28;20190;-55
2022/05/19 02:52:36;;;;;;;1.43;1.20;;;14.10;97.70;;;;;;5049688;28;20186;-54
2022/05/19 02:55:03;;;;;;;3.50;1.00;;;14.10;97.70;;;;;;5069522;28;20201;-59
2022/05/19 02:57:28;;;;;;;1.00;0.90;;;14.00;97.60;;;;;;5050890;28;20190;-59
2022/05/19 02:59:54;;;;;;;3.93;1.20;;;13.90;97.80;;;;;;5068191;28;20197;-58
2022/05/19 03:02:20;;;;;;;1.00;1.00;;;13.80;98.10;;;;;;5067943;28;20194;-58
2022/05/19 03:04:45;;;;;;;0.83;0.83;;;13.80;98.30;;;;;;5066798;28;20190;-48
2022/05/19 03:07:11;;;;;;;1.00;0.90;;;13.70;98.60;;;;;;5068533;28;20268;-49
2022/05/19 03:09:40;;;;;;;1.10;1.10;;;13.60;98.90;;;;;;5066044;28;20249;-53
2022/05/19 03:12:08;;;;;;;2.30;1.20;;;13.80;98.60;;;;;;5052692;28;20236;-56
2022/05/19 03:14:34;;;;;;;1.10;1.00;;;13.70;98.60;;;;;;5050629;28;20186;-53
2022/05/19 03:17:00;;;;;;;1.00;1.00;;;13.60;98.90;;;;;;5051990;28;20219;-51
2022/05/19 03:19:25;;;;;;;0.90;0.90;;;13.60;99.00;;;;;;5052160;28;20198;-51
2022/05/19 03:21:51;;;;;;;2.20;1.13;;;13.50;99.20;;;;;;5050650;28;20334;-55
2022/05/19 03:24:17;;;;;;;0.83;0.83;;;13.50;99.50;;;;;;5051986;28;20193;-59
2022/05/19 03:26:43;;;;;;;2.70;1.23;;;13.60;99.70;;;;;;5049184;28;20213;-59
2022/05/19 03:29:09;;;;;;;0.70;0.70;;;13.50;99.70;;;;;;5052279;28;20201;-52
2022/05/19 03:31:35;;;;;;;0.90;0.80;;;13.50;99.80;;;;;;5065965;28;20196;-54
2022/05/19 03:34:02;;;;;;;1.00;1.00;;;13.40;99.80;;;;;;5051365;28;20186;-54
2022/05/19 03:36:29;;;;;;;1.33;1.23;;;13.40;99.90;;;;;;5050256;28;20185;-59
2022/05/19 03:38:55;;;;;;;2.87;1.17;;;13.40;99.90;;;;;;5049757;28;20190;-48
2022/05/19 03:41:22;;;;;;;1.23;1.23;;;13.50;99.90;;;;;;5051137;28;20216;-59
2022/05/19 03:43:48;;;;;;;1.30;1.20;;;13.50;99.90;;;;;;5049599;28;20198;-53
2022/05/19 03:46:14;;;;;;;1.53;1.30;;;13.40;99.90;;;;;;5068416;28;20209;-56
2022/05/19 03:48:40;;;;;;;1.27;1.27;;;13.50;99.90;;;;;;5048618;28;20223;-60
2022/05/19 03:51:15;;;;;;;1.90;1.10;;;13.70;99.90;;;;;;5051324;28;20190;-58
2022/05/19 03:53:41;;;;;;;1.63;1.10;;;13.70;99.90;;;;;;5066025;28;20276;-53
2022/05/19 03:59:16;;;;;;;0.93;0.93;;;13.80;99.90;;;;;;5067812;28;20194;-59
2022/05/19 04:01:42;;;;;;;2.03;1.00;;;13.90;99.90;;;;;;5048872;28;20196;-58
2022/05/19 04:04:10;;;;;;;4.43;0.90;;;13.90;99.90;;;;;;5051470;28;20193;-48
2022/05/19 04:06:36;;;;;;;1.30;1.20;;;13.90;99.90;;;;;;5065905;28;20221;-55
2022/05/19 04:09:04;;;;;;;1.20;1.20;;;14.00;99.90;;;;;;5050190;28;20197;-57
2022/05/19 04:11:30;;;;;;;0.90;0.90;;;14.10;99.90;;;;;;5050261;28;20181;-53
2022/05/19 04:13:56;;;;;;;3.73;1.20;;;14.10;99.90;;;;;;5048653;28;20240;-54
2022/05/19 04:16:22;;;;;;;1.70;1.30;;;14.10;99.90;;;;;;5050832;28;20276;-58
2022/05/19 04:18:48;;;;;;;1.20;1.10;;;14.10;99.90;;;;;;5048612;28;20280;-51
2022/05/19 04:21:14;;;;;;;1.27;1.13;;;14.10;99.90;;;;;;5068303;28;20197;-50
2022/05/19 04:23:40;;;;;;;1.37;1.27;;;14.20;99.90;;;;;;5065208;28;20186;-53
2022/05/19 04:26:06;;;;;;;1.37;1.27;;;14.20;99.90;;;;;;5050242;28;20221;-52
2022/05/19 04:28:32;;;;;;;4.27;1.50;;;14.20;99.90;;;;;;5050202;28;20193;-51
2022/05/19 04:31:00;;;;;;;6.60;1.77;;;14.20;99.90;;;;;;5048953;28;20201;-56
2022/05/19 04:33:27;;;;;;;1.23;1.23;;;14.20;99.90;;;;;;5050473;28;20200;-58
2022/05/19 04:35:53;;;;;;;1.30;1.30;;;14.30;99.90;;;;;;5064209;28;20186;-57
2022/05/19 04:38:19;;;;;;;1.60;1.50;;;14.30;99.90;;;;;;5067916;28;20182;-54
2022/05/19 04:40:49;;;;;;;1.47;1.33;;;14.20;99.90;;;;;;5048365;28;20189;-59
2022/05/19 04:43:21;;;;;;;2.30;1.70;;;14.20;99.90;;;;;;5049785;28;20186;-54
2022/05/19 04:45:52;;;;;;;2.93;2.10;;;14.20;99.90;;;;;;5049238;28;20221;-51
2022/05/19 04:48:18;;;;;;;1.33;1.20;;;14.30;99.90;;;;;;5048880;28;20186;-51
2022/05/19 04:50:44;;;;;;;1.43;1.37;;;14.30;99.90;;;;;;5051041;28;20201;-58
2022/05/19 04:53:11;;;;;;;2.33;1.37;;;14.30;99.90;;;;;;5064477;28;20189;-47
2022/05/19 04:55:38;;;;;;;2.40;1.63;;;14.50;99.90;;;;;;5050501;28;20247;-51
2022/05/19 04:58:05;;;;;;;2.30;1.60;;;14.50;99.90;;;;;;5048132;28;20189;-56
2022/05/19 05:00:31;;;;;;;1.50;1.50;;;14.50;99.90;;;;;;5050156;28;20225;-56
2022/05/19 05:02:56;;;;;;;2.30;1.77;;;14.60;99.90;;;;;;5066057;28;20217;-55
2022/05/19 05:05:23;;;;;;;1.43;1.40;;;14.60;99.90;;;;;;5065178;28;20228;-57
2022/05/19 05:07:49;;;;;;;1.73;1.63;;;14.70;99.90;;;;;;5050044;28;20194;-60
2022/05/19 05:10:15;;;;;;;2.00;1.90;;;14.80;99.90;;;;;;5048037;28;20235;-57
2022/05/19 05:12:40;;;;;;;3.13;1.30;;;14.80;99.90;;;;;;5054115;28;20227;-52
2022/05/19 05:15:07;;;;;;;2.57;1.50;;;15.00;99.90;;;;;;5051678;28;20217;-52
2022/05/19 05:17:33;;;;;;;1.53;1.30;;;15.00;99.90;;;;;;5054354;28;20193;-56
2022/05/19 05:19:59;;;;;;;1.87;1.77;;;15.00;99.90;;;;;;5069928;28;20196;-57
2022/05/19 05:22:25;;;;;;;1.57;1.47;;;15.10;99.90;;;;;;5052455;28;20189;-53
2022/05/19 05:24:51;;;;;;;1.30;1.30;;;15.20;99.90;;;;;;5053246;28;20220;-59
2022/05/19 05:27:16;;;;;;;4.73;2.00;;;15.30;99.90;;;;;;5068243;28;20263;-55
2022/05/19 05:29:42;;;;;;;1.57;1.47;;;15.40;99.90;;;;;;5070847;28;20207;-57
2022/05/19 05:32:08;;;;;;;2.40;1.87;;;15.40;99.90;;;;;;5051394;28;20182;-55
2022/05/19 05:34:34;;;;;;;2.17;1.63;;;15.50;99.90;;;;;;5054273;28;20221;-52
2022/05/19 05:37:00;;;;;;;1.50;1.47;;;15.50;99.70;;;;;;5051564;28;20228;-56
2022/05/19 05:39:26;;;;;;;1.40;1.40;;;15.70;99.70;;;;;;5053299;28;20186;-56
2022/05/19 05:41:52;;;;;;;2.67;1.60;;;15.70;99.40;;;;;;5052648;28;20190;-58
2022/05/19 05:44:17;;;;;;;3.83;1.50;;;15.90;99.00;;;;;;5052453;28;20189;-57
2022/05/19 05:46:44;;;;;;;1.90;1.53;;;16.00;98.60;;;;;;5070078;28;20243;-52
2022/05/19 05:49:10;;;;;;;2.93;1.30;;;16.10;98.50;;;;;;5051759;28;20201;-53
2022/05/19 05:51:36;;;;;;;2.73;1.60;;;16.20;98.30;;;;;;5054151;28;20198;-55
2022/05/19 05:54:02;;;;;;;3.50;1.67;;;16.30;98.30;;;;;;5051019;28;20204;-57
2022/05/19 05:56:28;;;;;;;2.03;1.80;;;16.40;98.30;;;;;;5053401;28;20268;-52
2022/05/19 05:58:54;;;;;;;1.97;1.47;;;16.50;97.90;;;;;;5051844;28;20228;-55
2022/05/19 06:01:20;;;;;;;1.70;1.67;;;16.60;97.80;;;;;;5068517;28;20254;-48
2022/05/19 06:03:47;;;;;;;2.87;1.10;;;16.60;97.40;;;;;;5069347;28;20195;-55
2022/05/19 06:06:13;;;;;;;2.87;1.50;;;16.60;95.70;;;;;;5051444;28;20227;-50
2022/05/19 06:08:39;;;;;;;1.30;1.20;;;16.60;96.10;;;;;;5053990;28;20265;-54
2022/05/19 06:11:06;;;;;;;1.13;1.10;;;16.70;96.20;;;;;;5050679;28;20314;-59
2022/05/19 06:13:32;;;;;;;1.10;1.10;;;16.80;96.30;;;;;;5053725;28;20226;-55
2022/05/19 06:15:58;;;;;;;1.60;1.20;;;16.90;95.80;;;;;;5051870;28;20196;-54
2022/05/19 06:18:25;;;;;;;0.90;0.90;;;16.90;95.60;;;;;;5071885;28;20200;-54
2022/05/19 06:20:51;;;;;;;0.90;0.90;;;17.10;94.80;;;;;;5072824;28;20234;-53
2022/05/19 06:23:18;;;;;;;0.83;0.83;;;17.10;94.20;;;;;;5069605;28;20189;-53
2022/05/19 06:25:45;;;;;;;2.47;0.90;;;17.10;93.90;;;;;;5067021;28;20222;-49
2022/05/19 06:28:11;;;;;;;0.93;0.80;;;17.10;94.00;;;;;;5070494;28;20187;-51
2022/05/19 06:30:37;;;;;;;0.60;0.60;;;17.20;93.50;;;;;;5072710;28;20171;-53
2022/05/19 06:33:05;;;;;;;0.57;0.57;;;17.30;92.00;;;;;;5069928;28;20273;-51
2022/05/19 06:35:32;;;;;;;0.83;0.80;;;17.40;92.10;;;;;;5071544;28;20295;-52
2022/05/19 06:37:59;;;;;;;0.53;0.53;;;17.40;91.80;;;;;;5070273;28;20270;-51
2022/05/19 06:40:27;;;;;;;0.70;0.67;;;17.60;91.70;;;;;;5070023;28;20224;-56
2022/05/19 06:42:54;;;;;;;0.80;0.80;;;17.70;91.50;;;;;;5068815;28;20260;-58
2022/05/19 06:45:22;;;;;;;0.87;0.50;;;17.90;91.50;;;;;;5068688;28;20246;-58
2022/05/19 06:47:49;;;;;;;0.77;0.50;;;18.00;91.70;;;;;;5071901;28;20606;-59
2022/05/19 06:50:15;;;;;;;2.33;0.80;;;18.20;91.20;;;;;;5064649;28;20279;-57
2022/05/19 06:52:53;;;;;;;1.53;0.53;;;18.30;91.30;;;;;;5071571;28;20177;-55
2022/05/19 06:55:22;;;;;;;4.20;0.90;;;18.40;90.80;;;;;;5069556;28;20296;-56
2022/05/19 06:57:48;;;;;;;0.70;0.70;;;18.40;90.70;;;;;;5069431;28;20177;-58
2022/05/19 07:00:18;;;;;;;0.40;0.40;;;18.50;90.70;;;;;;5084819;28;20185;-54
2022/05/19 07:02:48;;;;;;;0.50;0.50;;;18.70;90.40;;;;;;5068518;28;20181;-56
2022/05/19 07:05:16;;;;;;;2.60;0.67;;;18.80;89.70;;;;;;5072351;28;20181;-52
2022/05/19 07:07:43;;;;;;;0.73;0.73;;;18.90;88.90;;;;;;5069146;28;20192;-56
2022/05/19 07:10:10;;;;;;;0.60;0.60;;;19.20;87.60;;;;;;5071109;28;20192;-53
2022/05/19 07:12:38;;;;;;;0.60;0.60;;;19.20;87.60;;;;;;5076402;28;20241;-56
2022/05/19 07:15:04;;;;;;;2.10;0.67;;;19.30;87.90;;;;;;5086241;28;20189;-59
2022/05/19 07:17:30;;;;;;;1.57;0.80;;;19.20;87.90;;;;;;5087601;28;20272;-54
2022/05/19 07:22:40;;;;;;;1.37;0.70;;;19.60;88.10;;;;;;5088355;28;20191;-55
2022/05/19 07:25:08;;;;;;;0.50;0.50;;;19.50;86.80;;;;;;5069320;28;20187;-58
2022/05/19 07:27:34;;;;;;;0.80;0.80;;;19.90;86.70;;;;;;5069610;28;20181;-47
2022/05/19 07:30:01;;;;;;;0.60;0.60;;;19.90;86.40;;;;;;5082675;28;20188;-52
2022/05/19 07:32:27;;;;;;;0.60;0.60;;;20.10;86.60;;;;;;5068497;28;20189;-54
2022/05/19 07:34:56;;;;;;;0.53;0.53;;;20.00;85.50;;;;;;5070206;28;20199;-56
2022/05/19 07:37:23;;;;;;;0.63;0.63;;;20.20;85.50;;;;;;5067222;28;20283;-55
2022/05/19 07:39:49;;;;;;;0.90;0.80;;;20.30;85.00;;;;;;5070810;28;20170;-60
2022/05/19 07:42:15;;;;;;;2.53;0.60;;;20.40;84.70;;;;;;5068411;28;20196;-58
2022/05/19 07:44:41;;;;;;;0.60;0.60;;;20.30;85.30;;;;;;5070172;28;20300;-58
2022/05/19 07:47:07;;;;;;;0.85;0.85;;;20.40;84.40;;;;;;5102772;28;20273;-55
2022/05/19 07:49:33;;;;;;;0.60;0.60;;;20.50;84.40;;;;;;5102836;28;20192;-56
2022/05/19 07:51:59;;;;;;;2.63;0.70;;;20.80;84.60;;;;;;5069850;28;21397;-56
2022/05/19 07:54:26;;;;;;;0.80;0.80;;;20.80;84.80;;;;;;5101725;28;20247;-51
2022/05/19 07:56:53;;;;;;;0.43;0.43;;;21.00;83.50;;;;;;5070519;28;20262;-53
2022/05/19 07:59:19;;;;;;;0.75;0.70;;;21.20;83.80;;;;;;5068490;28;20186;-60
2022/05/19 08:01:47;;;;;;;0.60;0.60;;;21.40;83.30;;;;;;5069588;28;20196;-59
2022/05/19 08:04:14;;;;;;;0.70;0.70;;;21.70;82.90;;;;;;5069232;28;20286;-52
2022/05/19 08:06:40;;;;;;;2.40;0.75;;;22.10;82.80;;;;;;5068966;28;20244;-56
2022/05/19 08:11:51;;;;;;;0.88;0.88;;;22.50;81.70;;;;;;5083303;28;20188;-58
2022/05/19 08:17:03;;;;;;;1.40;1.00;;;23.10;79.30;;;;;;5084877;28;20226;-57
2022/05/19 08:19:29;;;;;;;0.93;0.93;;;22.70;80.90;;;;;;5069253;28;20208;-58
2022/05/19 08:21:56;;;;;;;1.15;1.05;;;22.90;80.30;;;;;;5068604;28;20181;-53
2022/05/19 08:24:24;;;;;;;1.50;1.13;;;22.90;80.50;;;;;;5067715;28;20185;-56
2022/05/19 08:26:52;;;;;;;1.77;1.40;;;23.50;79.10;;;;;;5070352;28;20282;-57
2022/05/19 08:29:19;;;;;;;2.50;1.00;;;24.00;77.40;;;;;;5100911;28;20193;-54
2022/05/19 08:31:48;;;;;;;1.60;0.90;;;23.60;77.50;;;;;;5069664;28;20185;-53
2022/05/19 08:34:14;;;;;;;0.80;0.80;;;23.70;77.30;;;;;;5068113;28;20332;-56
2022/05/19 08:36:44;;;;;;;1.08;0.98;;;23.90;77.70;;;;;;5068999;28;20249;-46
2022/05/19 08:39:13;;;;;;;2.63;1.95;;;23.70;77.30;;;;;;5068090;28;20181;-54
2022/05/19 08:41:54;;;;;;;0.98;0.90;;;23.70;77.40;;;;;;5066793;28;20189;-49
2022/05/19 08:44:38;;;;;;;4.10;1.48;;;23.90;77.40;;;;;;5067800;28;20185;-53
2022/05/19 08:47:07;;;;;;;1.58;0.85;;;24.10;75.70;;;;;;5066192;28;20255;-54
2022/05/19 08:49:48;;;;;;;0.57;0.57;;;23.40;77.30;;;;;;5068505;28;20188;-54
2022/05/19 08:52:19;;;;;;;0.63;0.63;;;23.30;77.90;;;;;;5068146;28;20207;-55
2022/05/19 08:54:48;;;;;;;1.02;0.98;;;23.80;77.70;;;;;;5067922;28;20185;-51
2022/05/19 08:57:21;;;;;;;1.65;0.98;;;24.30;76.50;;;;;;5070384;28;20305;-58
2022/05/19 09:00:17;;;;;;;3.85;0.80;;;24.70;76.20;;;;;;5067425;28;20224;-59
2022/05/19 09:03:08;;;;;;;1.10;0.70;;;25.70;74.60;;;;;;5048610;28;20193;-52
2022/05/19 09:06:05;;;;;;;1.08;0.85;;;26.40;72.70;;;;;;5059289;28;20251;-58
2022/05/19 09:08:45;;;;;;;1.58;1.48;;;26.80;70.70;;;;;;5065326;28;20194;-54
2022/05/19 09:11:21;;;;;;;0.98;0.95;;;27.00;70.60;;;;;;5069407;28;20188;-50
2022/05/19 09:14:17;;;;;;;1.95;0.95;;;27.50;68.40;;;;;;5069474;28;20221;-57
2022/05/19 09:16:43;;;;;;;0.98;0.70;;;27.80;68.60;;;;;;5067577;28;20196;-58
2022/05/19 09:19:27;;;;;;;4.68;0.77;;;28.00;68.30;;;;;;5070691;28;20181;-50
2022/05/19 09:22:13;;;;;;;1.75;0.73;;;27.70;67.70;;;;;;5069449;28;20200;-55
2022/05/19 09:24:40;;;;;;;1.08;0.60;;;27.40;69.30;;;;;;5068464;28;20279;-54
2022/05/19 09:27:06;;;;;;;1.25;1.00;;;26.80;69.10;;;;;;5069965;28;20300;-51
2022/05/19 09:29:40;;;;;;;2.10;1.27;;;27.30;69.00;;;;;;5068429;28;20315;-51
2022/05/19 09:32:29;;;;;;;1.23;0.77;;;27.50;67.70;;;;;;5071061;28;20245;-51
2022/05/19 09:35:25;;;;;;;0.70;0.70;;;28.10;66.90;;;;;;5041353;28;20310;-50
2022/05/19 09:38:07;;;;;;;0.68;0.68;;;28.50;66.70;;;;;;5048318;28;20190;-51
2022/05/19 09:40:37;;;;;;;4.40;2.33;;;28.60;64.90;;;;;;5070760;28;20184;-54
2022/05/19 09:43:09;;;;;;;3.08;2.88;;;29.50;63.00;;;;;;5067880;28;20200;-50
2022/05/19 09:45:45;;;;;;;4.78;4.30;;;29.70;63.70;;;;;;5069612;28;20232;-52
2022/05/19 09:48:11;;;;;;;1.27;1.23;;;29.90;62.50;;;;;;5068578;28;20210;-58
2022/05/19 09:50:46;;;;;;;1.30;1.20;;;30.20;62.50;;;;;;5068624;28;20185;-51
2022/05/19 09:53:28;;;;;;;2.45;2.00;;;30.60;61.60;;;;;;5070237;28;20297;-59
2022/05/19 09:56:01;;;;;;;5.30;2.13;;;30.60;60.90;;;;;;5067754;28;20185;-51
2022/05/19 09:58:30;;;;;;;1.90;1.80;;;31.60;60.50;;;;;;5072225;28;20192;-46
2022/05/19 10:01:08;;;;;;;1.27;0.80;;;31.70;58.50;;;;;;5073055;28;20284;-56
2022/05/19 10:03:41;;;;;;;1.23;0.75;;;31.30;59.40;;;;;;5072455;28;20275;-52
2022/05/19 10:06:18;;;;;;;0.52;0.52;;;31.40;58.90;;;;;;5074103;28;20244;-55
2022/05/19 10:08:45;;;;;;;1.38;0.73;;;32.50;57.50;;;;;;5070699;28;20290;-53
2022/05/19 10:11:14;;;;;;;0.60;0.60;;;33.50;56.50;;;;;;5073644;28;20193;-51
2022/05/19 10:13:46;;;;;;;2.55;2.35;;;33.20;55.90;;;;;;5068213;28;20247;-54
2022/05/19 10:16:21;;;;;;;1.90;1.45;;;31.70;57.40;;;;;;5069285;28;20188;-56
2022/05/19 10:19:00;;;;;;;2.30;0.80;;;31.90;57.60;;;;;;5069807;28;20185;-50
2022/05/19 10:21:34;;;;;;;0.93;0.85;;;32.40;57.40;;;;;;5067099;28;20193;-57
2022/05/19 10:24:25;;;;;;;0.70;0.70;;;33.60;55.80;;;;;;5070032;28;20196;-58
2022/05/19 10:33:24;;;;;;;1.08;0.98;;;34.30;53.90;;;;;;5047429;28;20194;-52
2022/05/19 10:35:59;;;;;;;0.47;0.40;;;32.50;55.80;;;;;;5066482;28;20193;-51
2022/05/19 10:38:46;;;;;;;1.05;0.50;;;33.60;56.00;;;;;;5067544;28;20193;-59
2022/05/19 10:41:40;;;;;;;0.65;0.65;;;34.10;53.60;;;;;;5069782;28;20192;-60
2022/05/19 10:44:24;;;;;;;0.70;0.70;;;32.70;55.30;;;;;;5068266;28;20190;-59
2022/05/19 10:47:17;;;;;;;0.88;0.80;;;33.50;55.80;;;;;;5067781;28;20245;-53
2022/05/19 10:49:46;;;;;;;1.05;1.05;;;32.80;56.30;;;;;;5070182;28;20189;-56
2022/05/19 10:52:50;;;;;;;5.00;1.48;;;32.80;56.40;;;;;;5068545;28;20217;-56
2022/05/19 10:55:38;;;;;;;3.60;0.77;;;33.80;55.40;;;;;;5068722;28;20193;-56
2022/05/19 10:58:35;;;;;;;0.80;0.80;;;34.90;54.00;;;;;;5070221;28;20195;-57
2022/05/19 11:01:24;;;;;;;0.75;0.57;;;33.80;54.80;;;;;;5067652;28;20231;-56
2022/05/19 11:03:56;;;;;;;1.23;1.15;;;34.00;54.20;;;;;;5068679;28;20200;-53
2022/05/19 11:06:34;;;;;;;1.42;1.33;;;34.40;54.80;;;;;;5069670;28;20233;-61
2022/05/19 11:08:59;;;;;;;1.50;0.90;;;34.90;53.70;;;;;;5065114;28;20199;-59
2022/05/19 11:11:48;;;;;;;1.17;0.70;;;34.20;54.60;;;;;;5069450;28;20181;-55
2022/05/19 11:14:36;;;;;;;0.90;0.73;;;34.50;54.30;;;;;;5068495;28;20216;-60
2022/05/19 11:17:20;;;;;;;2.22;2.05;;;34.90;53.80;;;;;;5068295;28;20189;-61
2022/05/19 11:19:55;;;;;;;1.10;0.95;;;35.60;53.30;;;;;;5069308;28;20233;-60
2022/05/19 11:22:30;;;;;;;3.35;3.05;;;36.30;52.40;;;;;;5068537;28;20189;-60
2022/05/19 11:28:16;;;;;;;0.80;0.80;;;36.00;52.50;;;;;;5085361;28;20228;-61
2022/05/19 11:30:49;;;;;;;1.02;0.68;;;36.90;53.30;;;;;;5066572;28;20181;-59
2022/05/19 11:33:22;;;;;;;0.63;0.63;;;35.40;54.10;;;;;;5069089;28;20220;-60
2022/05/19 11:35:56;;;;;;;2.00;1.90;;;35.10;53.60;;;;;;5067662;28;20189;-59
2022/05/19 11:38:41;;;;;;;1.55;1.55;;;35.20;53.10;;;;;;5067807;28;20181;-60
2022/05/19 11:41:24;;;;;;;0.65;0.65;;;36.20;52.10;;;;;;5069310;28;20192;-61
2022/05/19 11:44:19;;;;;;;0.65;0.65;;;36.00;51.90;;;;;;5066251;28;20238;-58
2022/05/19 11:47:00;;;;;;;0.75;0.75;;;35.90;52.50;;;;;;5025764;28;20218;-56
2022/05/19 11:56:02;;;;;;;0.77;0.77;;;37.50;51.00;;;;;;4983543;28;20215;-50
2022/05/19 11:58:35;;;;;;;0.73;0.73;;;37.80;51.20;;;;;;4984950;28;20204;-55
2022/05/19 12:01:21;;;;;;;0.75;0.75;;;38.30;50.10;;;;;;4982428;28;20176;-57
2022/05/19 12:04:00;;;;;;;0.60;0.60;;;38.00;50.30;;;;;;4983904;28;20192;-55
2022/05/19 12:06:33;;;;;;;0.60;0.60;;;38.10;50.30;;;;;;4983735;28;20312;-51
2022/05/19 12:09:18;;;;;;;0.50;0.50;;;40.00;48.70;;;;;;4982468;28;20200;-51
2022/05/19 12:11:48;;;;;;;0.63;0.63;;;41.90;46.30;;;;;;4968409;28;20238;-47
2022/05/19 12:14:25;;;;;;;2.15;1.00;;;40.00;47.10;;;;;;4966199;28;20193;-57
2022/05/19 12:17:07;;;;;;;0.80;0.70;;;38.90;49.70;;;;;;4968075;28;20227;-58
2022/05/19 12:19:38;;;;;;;0.50;0.50;;;39.90;47.30;;;;;;4983975;28;20199;-54
2022/05/19 12:22:17;;;;;;;0.93;0.93;;;39.50;48.30;;;;;;4966480;28;20201;-51
2022/05/19 12:25:21;;;;;;;0.68;0.68;;;39.40;48.40;;;;;;5008357;28;20186;-55
2022/05/19 12:28:22;;;;;;;0.45;0.45;;;39.50;48.50;;;;;;5026095;28;20191;-49
2022/05/19 12:34:03;;;;;;;0.90;0.90;;;39.50;47.60;;;;;;5085315;28;20196;-57
2022/05/19 12:36:51;;;;;;;0.88;0.70;;;39.40;47.60;;;;;;5067371;28;20181;-55
2022/05/19 12:39:17;;;;;;;0.63;0.63;;;38.80;49.00;;;;;;5066571;28;20185;-54
2022/05/19 12:41:48;;;;;;;0.70;0.70;;;40.00;48.40;;;;;;5068279;28;20189;-54
2022/05/19 12:44:39;;;;;;;0.57;0.57;;;41.00;46.90;;;;;;5066290;28;20192;-61
2022/05/19 12:47:16;;;;;;;0.70;0.70;;;41.30;46.00;;;;;;5067393;28;20217;-55
2022/05/19 12:50:00;;;;;;;0.73;0.70;;;41.50;46.50;;;;;;5067899;28;20192;-60
2022/05/19 12:53:05;;;;;;;0.60;0.60;;;38.90;47.20;;;;;;5066361;28;20208;-54
2022/05/19 12:55:37;;;;;;;0.70;0.70;;;38.90;48.90;;;;;;5067616;28;20188;-48
2022/05/19 12:58:39;;;;;;;0.50;0.50;;;38.80;48.30;;;;;;5067084;28;20177;-61
2022/05/19 13:01:26;;;;;;;0.50;0.50;;;39.10;47.70;;;;;;5066643;28;20176;-57
2022/05/19 13:04:15;;;;;;;0.75;0.68;;;39.00;48.30;;;;;;5068437;28;20188;-51
2022/05/19 13:06:51;;;;;;;0.80;0.80;;;39.60;48.80;;;;;;5066738;28;20216;-51
2022/05/19 13:09:22;;;;;;;0.80;0.80;;;40.30;47.10;;;;;;5066773;28;20184;-51
2022/05/19 13:11:55;;;;;;;1.45;0.63;;;39.80;48.10;;;;;;5068085;28;20181;-59
2022/05/19 13:14:28;;;;;;;1.33;0.90;;;40.10;47.00;;;;;;5069307;28;20699;-61
2022/05/19 13:16:55;;;;;;;0.90;0.77;;;40.40;47.40;;;;;;5070955;28;20253;-47
2022/05/19 13:19:29;;;;;;;0.60;0.60;;;40.90;47.10;;;;;;5070143;28;20215;-59
2022/05/19 13:22:03;;;;;;;0.60;0.60;;;41.00;46.30;;;;;;5070369;28;20183;-59
2022/05/19 13:24:40;;;;;;;1.45;0.65;;;40.70;47.70;;;;;;5071082;28;20188;-60
2022/05/19 13:32:38;;;;;;;0.73;0.73;;;42.60;44.00;;;;;;5091715;28;20189;-61
2022/05/19 13:35:23;;;;;;;0.85;0.85;;;42.60;44.50;;;;;;5075135;28;20208;-52
2022/05/19 13:37:50;;;;;;;0.70;0.70;;;42.60;44.90;;;;;;5073348;28;20234;-62
2022/05/19 13:40:29;;;;;;;2.40;0.70;;;42.60;44.40;;;;;;5071873;28;20176;-59
2022/05/19 13:42:58;;;;;;;0.60;0.60;;;42.40;44.40;;;;;;5072964;28;20180;-63
2022/05/19 13:45:42;;;;;;;0.70;0.70;;;42.00;45.30;;;;;;5067338;28;20200;-57
2022/05/19 13:48:19;;;;;;;0.57;0.57;;;42.60;45.10;;;;;;5088369;28;20188;-60
2022/05/19 13:50:47;;;;;;;0.80;0.80;;;41.40;46.60;;;;;;5086231;28;20183;-58